createdAt,value
2023-05-02T00:00:09.943Z,16.07
2023-05-02T00:05:07.304Z,16.31
2023-05-02T00:10:05.499Z,15.97
2023-05-02T00:15:03.744Z,16.33
2023-05-02T00:20:00.991Z,16.11
2023-05-02T00:24:58.286Z,16.25
2023-05-02T00:29:55.143Z,15.94
2023-05-02T00:34:52.702Z,16.25
2023-05-02T00:39:49.683Z,15.88
2023-05-02T00:44:46.739Z,16.11
2023-05-02T00:49:43.791Z,16.02
2023-05-02T00:54:42.600Z,15.83
2023-05-02T00:59:39.594Z,15.73
2023-05-02T01:04:44.073Z,15.80
2023-05-02T01:09:57.744Z,15.76
2023-05-02T01:14:58.541Z,15.41
2023-05-02T01:19:59.437Z,15.47
2023-05-02T01:25:08.924Z,15.45
2023-05-02T01:30:09.684Z,15.38
2023-05-02T01:35:08.356Z,15.06
2023-05-02T01:40:10.761Z,15.09
2023-05-02T01:45:11.213Z,15.17
2023-05-02T01:50:11.402Z,14.97
2023-05-02T01:55:13.458Z,14.13
2023-05-02T02:00:12.682Z,14.13
2023-05-02T02:05:13.957Z,14.42
2023-05-02T02:10:11.916Z,14.24
2023-05-02T02:15:16.838Z,14.32
2023-05-02T02:20:15.611Z,14.32
2023-05-02T02:25:15.698Z,14.23
2023-05-02T02:30:13.334Z,14.19
2023-05-02T02:35:11.223Z,14.09
2023-05-02T02:40:17.484Z,13.96
2023-05-02T02:45:26.246Z,13.94
2023-05-02T02:50:31.237Z,14.22
2023-05-02T02:55:38.800Z,14.19
2023-05-02T03:00:36.799Z,14.07
2023-05-02T03:05:34.141Z,13.96
2023-05-02T03:10:33.040Z,14.34
2023-05-02T03:15:53.810Z,14.28
2023-05-02T03:20:57.189Z,13.74
2023-05-02T03:25:54.924Z,13.95
2023-05-02T03:30:55.692Z,14.09
2023-05-02T03:35:52.977Z,14.38
2023-05-02T03:40:51.014Z,14.51
2023-05-02T03:45:48.912Z,14.42
2023-05-02T03:50:49.159Z,14.85
2023-05-02T03:55:46.166Z,14.96
2023-05-02T04:00:52.230Z,15.07
2023-05-02T04:05:53.797Z,15.14
2023-05-02T04:10:54.614Z,14.87
2023-05-02T04:15:53.936Z,14.59
2023-05-02T04:20:54.217Z,14.10
2023-05-02T04:25:55.658Z,13.97
2023-05-02T04:31:00.367Z,13.50
2023-05-02T04:35:58.332Z,14.17
2023-05-02T04:40:55.768Z,13.61
2023-05-02T04:46:01.399Z,14.23
2023-05-02T04:51:03.253Z,14.28
2023-05-02T04:56:01.247Z,14.52
2023-05-02T05:00:59.636Z,14.54
2023-05-02T05:05:56.968Z,14.58
2023-05-02T05:10:56.861Z,14.27
2023-05-02T05:15:54.922Z,14.59
2023-05-02T05:20:56.019Z,14.44
2023-05-02T05:25:53.003Z,15.04
2023-05-02T05:30:54.053Z,16.38
2023-05-02T05:36:03.171Z,18.38
2023-05-02T05:41:00.761Z,20.56
2023-05-02T05:45:58.577Z,22.46
2023-05-02T05:51:08.913Z,23.96
2023-05-02T05:56:16.118Z,25.49
2023-05-02T06:01:20.828Z,26.00
2023-05-02T06:06:18.488Z,25.48
2023-05-02T06:11:21.080Z,25.89
2023-05-02T06:16:32.306Z,26.41
2023-05-02T06:21:31.272Z,27.33
2023-05-02T06:26:40.732Z,27.23
2023-05-02T06:31:42.219Z,27.38
2023-05-02T06:36:39.232Z,28.01
2023-05-02T06:41:45.686Z,28.60
2023-05-02T06:46:47.966Z,28.91
2023-05-02T06:51:45.305Z,29.10
2023-05-02T06:56:42.580Z,29.28
2023-05-02T07:01:41.677Z,29.40
2023-05-02T07:06:43.348Z,30.24
2023-05-02T07:11:41.693Z,30.14
2023-05-02T07:16:39.582Z,30.72
2023-05-02T07:21:36.810Z,31.19
2023-05-02T07:26:35.099Z,31.35
2023-05-02T07:31:33.006Z,31.20
2023-05-02T07:36:30.646Z,31.84
2023-05-02T07:41:28.255Z,32.84
2023-05-02T07:46:25.941Z,33.32
2023-05-02T07:51:22.843Z,33.23
2023-05-02T07:56:20.621Z,33.62
2023-05-02T08:01:17.646Z,35.07
2023-05-02T08:06:15.622Z,35.75
2023-05-02T08:11:12.653Z,35.04
2023-05-02T08:16:11.820Z,35.00
2023-05-02T08:21:08.719Z,36.25
2023-05-02T08:26:06.559Z,36.71
2023-05-02T08:31:06.000Z,37.72
2023-05-02T08:36:11.046Z,38.38
2023-05-02T08:41:11.478Z,38.39
2023-05-02T08:46:10.231Z,39.34
2023-05-02T08:51:09.394Z,39.63
2023-05-02T08:56:07.560Z,39.73
2023-05-02T09:01:13.010Z,40.26
2023-05-02T09:06:12.533Z,40.57
2023-05-02T09:11:11.043Z,40.78
2023-05-02T09:16:10.261Z,40.81
2023-05-02T09:21:08.823Z,41.17
2023-05-02T09:26:13.642Z,40.53
2023-05-02T09:31:16.829Z,40.10
2023-05-02T09:36:17.121Z,38.59
2023-05-02T09:41:14.188Z,37.61
2023-05-02T09:46:11.954Z,36.86
2023-05-02T09:51:17.431Z,36.95
2023-05-02T09:56:14.885Z,37.95
2023-05-02T10:01:16.001Z,38.52
2023-05-02T10:06:13.514Z,38.39
2023-05-02T10:11:12.579Z,38.88
2023-05-02T10:16:13.308Z,37.85
2023-05-02T10:21:12.305Z,37.31
2023-05-02T10:26:10.707Z,37.28
2023-05-02T10:31:12.815Z,37.44
2023-05-02T10:36:12.804Z,36.42
2023-05-02T10:41:15.349Z,35.51
2023-05-02T10:46:31.030Z,34.24
2023-05-02T10:51:29.464Z,33.55
2023-05-02T10:56:28.479Z,32.51
2023-05-02T11:01:37.300Z,31.39
2023-05-02T11:06:36.412Z,30.46
2023-05-02T11:11:40.826Z,29.56
2023-05-02T11:17:06.097Z,29.13
2023-05-02T11:22:32.576Z,28.86
2023-05-02T11:27:39.077Z,28.62
2023-05-02T11:33:16.609Z,28.46
2023-05-02T11:38:18.573Z,28.17
2023-05-02T11:43:16.882Z,27.57
2023-05-02T11:48:16.277Z,27.71
2023-05-02T11:53:13.964Z,27.67
2023-05-02T11:58:13.859Z,27.71
2023-05-02T12:03:22.842Z,27.55
2023-05-02T12:08:22.049Z,27.59
2023-05-02T12:13:20.845Z,27.19
2023-05-02T12:18:21.509Z,27.26
2023-05-02T12:23:25.714Z,27.04
2023-05-02T12:28:23.470Z,27.08
2023-05-02T12:33:21.039Z,27.13
2023-05-02T12:38:22.129Z,27.12
2023-05-02T12:43:19.507Z,26.99
2023-05-02T12:48:22.000Z,26.80
2023-05-02T12:53:38.925Z,26.68
2023-05-02T12:58:43.703Z,26.81
2023-05-02T13:03:42.615Z,26.64
2023-05-02T13:08:39.558Z,26.33
2023-05-02T13:13:36.384Z,26.02
2023-05-02T13:18:33.440Z,25.75
2023-05-02T13:23:31.230Z,25.46
2023-05-02T13:28:32.625Z,25.51
2023-05-02T13:33:29.454Z,25.49
2023-05-02T13:38:26.517Z,25.41
2023-05-02T13:43:24.508Z,25.42
2023-05-02T13:48:21.497Z,25.28
2023-05-02T13:53:18.461Z,25.01
2023-05-02T13:58:15.194Z,25.27
2023-05-02T14:03:13.095Z,25.56
2023-05-02T14:08:10.803Z,25.35
2023-05-02T14:13:07.659Z,25.31
2023-05-02T14:18:04.555Z,24.97
2023-05-02T14:23:02.001Z,25.38
2023-05-02T14:27:59.907Z,24.89
2023-05-02T14:32:57.048Z,25.22
2023-05-02T14:37:53.910Z,25.12
2023-05-02T14:42:51.667Z,25.13
2023-05-02T14:47:48.876Z,25.05
2023-05-02T14:52:53.127Z,25.02
2023-05-02T14:57:50.564Z,24.83
2023-05-02T15:02:48.291Z,24.87
2023-05-02T15:07:45.392Z,25.05
2023-05-02T15:12:50.126Z,24.77
2023-05-02T15:17:50.469Z,24.77
2023-05-02T15:22:48.626Z,24.79
2023-05-02T15:27:48.611Z,24.92
2023-05-02T15:32:45.678Z,24.86
2023-05-02T15:37:43.357Z,24.81
2023-05-02T15:42:40.421Z,24.88
2023-05-02T15:47:37.225Z,24.74
2023-05-02T15:52:41.695Z,24.82
2023-05-02T15:57:39.580Z,24.63
2023-05-02T16:02:38.439Z,24.66
2023-05-02T16:07:35.290Z,24.29
2023-05-02T16:12:32.318Z,24.39
2023-05-02T16:17:30.583Z,24.21
2023-05-02T16:22:27.728Z,24.44
2023-05-02T16:27:24.655Z,24.35
2023-05-02T16:32:22.890Z,24.25
2023-05-02T16:37:41.304Z,23.95
2023-05-02T16:42:44.448Z,23.74
2023-05-02T16:47:41.416Z,24.06
2023-05-02T16:52:39.149Z,23.82
2023-05-02T16:57:36.095Z,23.28
2023-05-02T17:02:36.977Z,23.54
2023-05-02T17:07:36.908Z,23.30
2023-05-02T17:12:35.507Z,23.09
2023-05-02T17:17:45.659Z,23.14
2023-05-02T17:22:42.613Z,22.89
2023-05-02T17:27:41.115Z,22.78
2023-05-02T17:32:41.208Z,22.58
2023-05-02T17:37:45.164Z,22.25
2023-05-02T17:42:46.336Z,21.95
2023-05-02T17:47:43.547Z,21.89
2023-05-02T17:52:40.727Z,21.85
2023-05-02T17:57:39.314Z,21.06
2023-05-02T18:02:48.929Z,21.29
2023-05-02T18:07:46.403Z,21.14
2023-05-02T18:12:43.432Z,20.89
2023-05-02T18:17:42.904Z,20.83
2023-05-02T18:22:39.883Z,20.62
2023-05-02T18:27:37.456Z,20.55
2023-05-02T18:32:36.759Z,20.25
2023-05-02T18:37:35.639Z,19.98
2023-05-02T18:42:32.687Z,20.30
2023-05-02T18:47:30.938Z,20.14
2023-05-02T18:52:29.540Z,19.46
2023-05-02T18:57:29.174Z,20.00
2023-05-02T19:02:26.744Z,19.66
2023-05-02T19:07:23.651Z,19.61
2023-05-02T19:12:20.553Z,19.51
2023-05-02T19:17:18.143Z,19.34
2023-05-02T19:22:15.163Z,19.10
2023-05-02T19:27:12.031Z,18.99
2023-05-02T19:32:09.303Z,19.01
2023-05-02T19:37:07.155Z,19.19
2023-05-02T19:42:04.275Z,19.13
2023-05-02T19:47:01.305Z,19.07
2023-05-02T19:51:58.205Z,18.36
2023-05-02T19:56:55.637Z,18.53
2023-05-02T20:01:52.563Z,18.70
2023-05-02T20:06:49.537Z,18.81
2023-05-02T20:11:46.423Z,18.37
2023-05-02T20:16:45.297Z,18.26
2023-05-02T20:21:42.112Z,18.58
2023-05-02T20:26:38.899Z,18.35
2023-05-02T20:31:35.758Z,18.15
2023-05-02T20:36:33.400Z,18.02
2023-05-02T20:41:31.648Z,18.37
2023-05-02T20:46:28.519Z,17.90
2023-05-02T20:51:29.045Z,18.19
2023-05-02T20:56:26.859Z,18.11
2023-05-02T21:01:26.493Z,18.02
2023-05-02T21:06:23.442Z,17.83
2023-05-02T21:11:21.129Z,17.94
2023-05-02T21:16:19.757Z,17.87
2023-05-02T21:21:16.506Z,17.65
2023-05-02T21:26:13.394Z,17.72
2023-05-02T21:31:10.466Z,17.40
2023-05-02T21:36:09.583Z,17.61
2023-05-02T21:41:06.774Z,17.40
2023-05-02T21:46:03.863Z,17.36
2023-05-02T21:51:06.607Z,17.19
2023-05-02T21:56:04.566Z,17.33
2023-05-02T22:01:03.048Z,17.25
2023-05-02T22:06:05.075Z,17.17
2023-05-02T22:11:07.347Z,16.53
2023-05-02T22:16:04.871Z,17.02
2023-05-02T22:21:01.850Z,17.00
2023-05-02T22:26:01.058Z,16.76
2023-05-02T22:31:00.814Z,16.82
2023-05-02T22:35:57.723Z,16.76
2023-05-02T22:40:54.521Z,16.87
2023-05-02T22:45:51.522Z,16.73
2023-05-02T22:50:49.084Z,16.42
2023-05-02T22:55:46.318Z,16.52
2023-05-02T23:00:43.416Z,15.88
2023-05-02T23:05:40.300Z,16.69
2023-05-02T23:10:37.796Z,16.48
2023-05-02T23:15:34.518Z,16.61
2023-05-02T23:20:33.031Z,16.34
2023-05-02T23:25:30.182Z,16.03
2023-05-02T23:30:29.122Z,15.71
2023-05-02T23:35:26.156Z,15.43
2023-05-02T23:40:23.256Z,15.26
2023-05-02T23:45:20.580Z,14.59
2023-05-02T23:50:18.458Z,14.42
2023-05-02T23:55:15.279Z,13.88
